createdAt,value
2022-10-22T02:47:02.461Z,0.00
2022-10-22T02:48:03.826Z,0.00
2022-10-22T02:49:04.205Z,0.00
2022-10-22T02:50:07.871Z,0.00
2022-10-22T02:51:04.919Z,0.00
2022-10-22T02:52:05.272Z,0.00
2022-10-22T02:53:05.660Z,0.00
2022-10-22T02:54:06.009Z,0.00
2022-10-22T02:55:06.450Z,0.00
2022-10-22T02:56:06.717Z,0.00
2022-10-22T02:57:07.201Z,0.00
2022-10-22T02:58:07.429Z,0.00
2022-10-22T02:59:07.768Z,0.00
2022-10-22T03:00:08.158Z,0.00
2022-10-22T03:01:10.355Z,0.00
2022-10-22T03:02:08.855Z,0.00
2022-10-22T03:03:09.215Z,0.00
2022-10-22T03:04:09.591Z,0.00
2022-10-22T03:05:09.942Z,0.00
2022-10-22T03:06:10.285Z,0.00
2022-10-22T03:07:10.648Z,0.00
2022-10-22T03:08:11.006Z,0.00
2022-10-22T03:09:11.363Z,0.00
2022-10-22T03:10:11.724Z,0.00
2022-10-22T03:11:12.070Z,0.00
2022-10-22T03:12:12.426Z,0.00
2022-10-22T03:13:12.780Z,0.00
2022-10-22T03:14:13.115Z,0.00
2022-10-22T03:15:13.526Z,0.00
2022-10-22T03:16:13.863Z,0.00
2022-10-22T03:17:14.206Z,0.00
2022-10-22T03:18:14.557Z,0.00
2022-10-22T03:19:14.932Z,0.00
2022-10-22T03:20:15.266Z,0.00
2022-10-22T03:21:15.686Z,0.00
2022-10-22T03:22:15.974Z,0.00
2022-10-22T03:23:16.318Z,0.00
2022-10-22T03:24:16.673Z,0.00
2022-10-22T03:25:17.041Z,0.00
2022-10-22T03:26:17.376Z,0.00
2022-10-22T03:27:17.774Z,0.00
2022-10-22T03:28:18.109Z,0.00
2022-10-22T03:29:18.470Z,0.00
2022-10-22T03:30:18.863Z,0.00
2022-10-22T03:31:19.171Z,0.00
2022-10-22T03:32:19.517Z,0.00
2022-10-22T03:33:19.878Z,0.00
2022-10-22T03:34:20.234Z,0.00
2022-10-22T03:35:20.627Z,0.00
2022-10-22T03:36:20.979Z,0.00
2022-10-22T03:37:21.317Z,0.00
2022-10-22T03:38:21.667Z,0.00
2022-10-22T03:39:22.024Z,0.00
2022-10-22T03:40:22.969Z,0.00
2022-10-22T03:41:22.729Z,0.00
2022-10-22T03:42:23.112Z,0.00
2022-10-22T03:43:23.432Z,0.00
2022-10-22T03:44:23.791Z,0.00
2022-10-22T03:45:24.190Z,0.00
2022-10-22T03:46:24.553Z,0.00
2022-10-22T03:47:24.863Z,0.00
2022-10-22T03:48:25.219Z,0.00
2022-10-22T03:49:25.600Z,0.00
2022-10-22T03:50:25.995Z,0.00
2022-10-22T03:51:26.348Z,0.00
2022-10-22T03:52:26.703Z,0.00
2022-10-22T03:53:27.066Z,0.00
2022-10-22T03:54:27.486Z,0.00
2022-10-22T03:55:27.846Z,0.00
2022-10-22T03:56:28.191Z,0.00
2022-10-22T03:57:28.543Z,0.00
2022-10-22T03:58:28.896Z,0.00
2022-10-22T03:59:29.271Z,0.00
2022-10-22T04:00:29.631Z,0.00
2022-10-22T04:01:30.090Z,0.00
2022-10-22T04:02:30.362Z,0.00
2022-10-22T04:03:30.732Z,0.00
2022-10-22T04:04:31.085Z,0.00
2022-10-22T04:05:31.472Z,0.00
2022-10-22T04:06:31.783Z,0.00
2022-10-22T04:07:32.138Z,0.00
2022-10-22T04:08:32.586Z,0.00
2022-10-22T04:09:32.860Z,0.00
2022-10-22T04:10:33.233Z,0.00
2022-10-22T04:11:33.566Z,0.00
2022-10-22T04:12:33.920Z,0.00
2022-10-22T04:13:34.289Z,0.00
2022-10-22T04:14:34.634Z,0.00
2022-10-22T04:15:35.084Z,0.00
2022-10-22T04:16:35.368Z,0.00
2022-10-22T04:17:35.712Z,0.00
2022-10-22T04:18:36.077Z,0.00
2022-10-22T04:19:36.453Z,0.00
2022-10-22T04:20:36.832Z,0.00
2022-10-22T04:21:37.161Z,0.00
2022-10-22T04:22:37.494Z,0.00
2022-10-22T04:23:37.873Z,0.00
2022-10-22T04:24:38.337Z,0.00
2022-10-22T04:25:38.582Z,0.00
2022-10-22T04:26:38.932Z,0.00
2022-10-22T04:27:39.691Z,0.00
2022-10-22T04:28:39.653Z,0.00
2022-10-22T04:29:40.003Z,0.00
2022-10-22T04:30:40.381Z,0.00
2022-10-22T04:31:40.758Z,0.00
2022-10-22T04:32:41.150Z,0.00
2022-10-22T04:33:41.476Z,0.00
2022-10-22T04:34:41.831Z,0.00
2022-10-22T04:35:42.196Z,0.00
2022-10-22T04:36:42.537Z,0.00
2022-10-22T04:37:43.186Z,0.00
2022-10-22T04:38:43.250Z,0.00
2022-10-22T04:39:43.602Z,0.00
2022-10-22T04:40:43.996Z,0.00
2022-10-22T04:41:44.307Z,0.00
2022-10-22T04:42:44.688Z,0.00
2022-10-22T04:43:45.031Z,0.00
2022-10-22T04:44:45.380Z,0.00
2022-10-22T04:45:45.760Z,0.00
2022-10-22T04:46:46.126Z,0.00
2022-10-22T04:47:46.468Z,0.00
2022-10-22T04:48:46.810Z,0.00
2022-10-22T04:49:47.162Z,0.00
2022-10-22T04:50:47.528Z,0.00
2022-10-22T04:51:47.915Z,0.00
2022-10-22T04:52:48.225Z,0.00
2022-10-22T04:53:48.586Z,0.00
2022-10-22T04:54:48.943Z,0.00
2022-10-22T04:55:49.382Z,0.00
2022-10-22T04:56:49.668Z,0.00
2022-10-22T04:57:50.019Z,0.00
2022-10-22T04:58:50.371Z,0.00
2022-10-22T04:59:50.723Z,0.00
2022-10-22T05:00:51.122Z,0.00
2022-10-22T05:01:51.445Z,0.00
2022-10-22T05:02:51.817Z,0.00
2022-10-22T05:03:52.166Z,0.00
2022-10-22T05:04:52.527Z,0.00
2022-10-22T05:05:52.961Z,0.00
2022-10-22T05:06:53.235Z,0.00
2022-10-22T05:07:53.599Z,0.00
2022-10-22T05:08:53.999Z,0.00
2022-10-22T05:09:54.306Z,0.00
2022-10-22T05:10:54.668Z,0.00
2022-10-22T05:11:55.021Z,0.00
2022-10-22T05:12:55.382Z,0.00
2022-10-22T05:13:55.720Z,0.00
2022-10-22T05:14:56.099Z,0.00
2022-10-22T05:15:56.466Z,0.00
2022-10-22T05:16:56.815Z,0.00
2022-10-22T05:17:57.173Z,0.00
2022-10-22T05:18:57.524Z,0.00
2022-10-22T05:19:57.910Z,0.00
2022-10-22T05:20:58.250Z,0.00
2022-10-22T05:21:58.645Z,0.00
2022-10-22T05:22:58.980Z,0.00
2022-10-22T05:23:59.330Z,0.00
2022-10-22T05:24:59.699Z,0.00
2022-10-22T05:26:00.095Z,0.00
2022-10-22T05:27:00.454Z,0.00
2022-10-22T05:28:00.824Z,0.00
2022-10-22T05:29:00.958Z,1.00
2022-10-22T05:30:01.130Z,1.00
2022-10-22T05:31:01.322Z,1.00
2022-10-22T05:32:01.465Z,2.00
2022-10-22T05:33:01.749Z,2.00
2022-10-22T05:34:01.922Z,2.00
2022-10-22T05:35:02.095Z,3.00
2022-10-22T05:36:02.273Z,3.00
2022-10-22T05:37:02.491Z,4.00
2022-10-22T05:38:02.719Z,5.00
2022-10-22T05:39:02.889Z,6.00
2022-10-22T05:40:18.928Z,8.00
2022-10-22T05:41:03.483Z,5.00
2022-10-22T05:42:03.639Z,13.00
2022-10-22T05:43:03.818Z,13.00
2022-10-22T05:44:04.090Z,20.00
2022-10-22T05:45:04.303Z,16.00
2022-10-22T05:46:04.469Z,14.00
2022-10-22T05:47:04.786Z,24.00
2022-10-22T05:48:05.055Z,33.00
2022-10-22T05:49:05.391Z,36.00
2022-10-22T05:50:05.618Z,36.00
2022-10-22T05:51:05.800Z,44.00
2022-10-22T05:52:06.081Z,57.00
2022-10-22T05:53:06.267Z,60.00
2022-10-22T05:54:06.576Z,63.00
2022-10-22T05:55:06.765Z,64.00
2022-10-22T05:56:07.064Z,82.00
2022-10-22T05:57:07.328Z,88.00
2022-10-22T05:58:07.479Z,97.00
2022-10-22T05:59:07.820Z,105.00
2022-10-22T06:00:10.562Z,113.00
2022-10-22T06:01:08.427Z,122.00
2022-10-22T06:02:08.709Z,131.00
2022-10-22T06:03:08.849Z,141.00
2022-10-22T06:04:09.015Z,150.00
2022-10-22T06:05:09.418Z,160.00
2022-10-22T06:06:09.621Z,170.00
2022-10-22T06:07:09.806Z,183.00
2022-10-22T06:08:10.086Z,196.00
2022-10-22T06:09:10.365Z,213.00
2022-10-22T06:10:10.462Z,231.00
2022-10-22T06:11:10.661Z,249.00
2022-10-22T06:12:10.934Z,269.00
2022-10-22T06:13:11.100Z,290.00
2022-10-22T06:14:11.298Z,313.00
2022-10-22T06:15:11.479Z,336.00
2022-10-22T06:16:11.649Z,351.00
2022-10-22T06:17:11.813Z,374.00
2022-10-22T06:18:11.991Z,392.00
2022-10-22T06:19:12.145Z,408.00
2022-10-22T06:20:12.330Z,428.00
2022-10-22T06:21:12.558Z,449.00
2022-10-22T06:22:12.696Z,465.00
2022-10-22T06:23:12.856Z,487.00
2022-10-22T06:24:13.030Z,503.00
2022-10-22T06:25:13.205Z,528.00
2022-10-22T06:26:13.396Z,556.00
2022-10-22T06:27:13.572Z,579.00
2022-10-22T06:28:13.767Z,604.00
2022-10-22T06:29:13.902Z,625.00
2022-10-22T06:30:14.097Z,657.00
2022-10-22T06:31:14.269Z,690.00
2022-10-22T06:32:14.598Z,723.00
2022-10-22T06:33:14.735Z,764.00
2022-10-22T06:34:14.921Z,798.00
2022-10-22T06:35:15.111Z,834.00
2022-10-22T06:36:15.308Z,868.00
2022-10-22T06:37:15.460Z,911.00
2022-10-22T06:38:15.749Z,947.00
2022-10-22T06:39:15.975Z,992.00
2022-10-22T06:40:16.129Z,1031.00
2022-10-22T06:41:16.333Z,1073.00
2022-10-22T06:42:17.367Z,1108.00
2022-10-22T06:43:16.789Z,1148.00
2022-10-22T06:44:17.006Z,1184.00
2022-10-22T06:45:17.150Z,1213.00
2022-10-22T06:46:19.861Z,1252.00
2022-10-22T06:47:17.532Z,1283.00
2022-10-22T06:48:17.689Z,1318.00
2022-10-22T06:49:17.884Z,1353.00
2022-10-22T06:50:18.048Z,1393.00
2022-10-22T06:51:18.274Z,1430.00
2022-10-22T06:52:18.431Z,1451.00
2022-10-22T06:53:18.631Z,1486.00
2022-10-22T06:54:18.817Z,1513.00
2022-10-22T06:55:19.002Z,1546.00
2022-10-22T06:56:19.253Z,1580.00
2022-10-22T06:57:19.385Z,1618.00
2022-10-22T06:58:19.559Z,1652.00
2022-10-22T06:59:19.760Z,1694.00
2022-10-22T07:00:20.012Z,1730.00
2022-10-22T07:01:20.293Z,1772.00
2022-10-22T07:02:20.298Z,1812.00
2022-10-22T07:03:20.532Z,1850.00
2022-10-22T07:04:20.692Z,1897.00
2022-10-22T07:05:20.881Z,1951.00
2022-10-22T07:06:21.081Z,2014.00
2022-10-22T07:07:21.277Z,2066.00
2022-10-22T07:08:21.446Z,2140.00
2022-10-22T07:09:21.652Z,2225.00
2022-10-22T07:10:22.272Z,2310.00
2022-10-22T07:11:22.214Z,2392.00
2022-10-22T07:12:22.224Z,2463.00
2022-10-22T07:13:22.453Z,2539.00
2022-10-22T07:14:22.596Z,2617.00
2022-10-22T07:15:22.789Z,2698.00
2022-10-22T07:16:25.650Z,2772.00
2022-10-22T07:17:23.215Z,2835.00
2022-10-22T07:18:23.475Z,2882.00
2022-10-22T07:19:23.581Z,2950.00
2022-10-22T07:20:23.818Z,3008.00
2022-10-22T07:21:23.982Z,3053.00
2022-10-22T07:22:24.150Z,3102.00
2022-10-22T07:23:24.348Z,3146.00
2022-10-22T07:24:24.557Z,3178.00
2022-10-22T07:25:24.751Z,3198.00
2022-10-22T07:26:24.972Z,3194.00
2022-10-22T07:27:25.117Z,3174.00
2022-10-22T07:28:25.311Z,3201.00
2022-10-22T07:29:25.511Z,3276.00
2022-10-22T07:30:25.704Z,3339.00
2022-10-22T07:31:25.948Z,3402.00
2022-10-22T07:32:26.088Z,3450.00
2022-10-22T07:33:26.297Z,3493.00
2022-10-22T07:34:26.507Z,3541.00
2022-10-22T07:35:26.711Z,3582.00
2022-10-22T07:36:26.888Z,3620.00
2022-10-22T07:37:27.062Z,3660.00
2022-10-22T07:38:27.263Z,3708.00
2022-10-22T07:39:27.476Z,3754.00
2022-10-22T07:40:27.647Z,3808.00
2022-10-22T07:41:27.853Z,3837.00
2022-10-22T07:43:28.214Z,3900.00
2022-10-22T07:44:28.439Z,3925.00
2022-10-22T07:45:28.597Z,3941.00
2022-10-22T07:46:28.811Z,3944.00
2022-10-22T07:47:28.969Z,3934.00
2022-10-22T07:48:29.181Z,3911.00
2022-10-22T07:49:29.340Z,3866.00
2022-10-22T07:50:29.541Z,3813.00
2022-10-22T07:51:29.769Z,3761.00
2022-10-22T07:52:29.934Z,3721.00
2022-10-22T07:53:30.130Z,3658.00
2022-10-22T07:54:30.342Z,3609.00
2022-10-22T07:55:30.518Z,3553.00
2022-10-22T07:56:30.747Z,3476.00
2022-10-22T07:57:30.856Z,3402.00
2022-10-22T07:58:31.052Z,3340.00
2022-10-22T07:59:31.246Z,3269.00
2022-10-22T08:00:31.474Z,3198.00
2022-10-22T08:01:31.734Z,3077.00
2022-10-22T08:02:31.859Z,2953.00
2022-10-22T08:03:32.051Z,2856.00
2022-10-22T08:04:32.216Z,2790.00
2022-10-22T08:05:32.415Z,2739.00
2022-10-22T08:06:32.616Z,2712.00
2022-10-22T08:07:32.810Z,2724.00
2022-10-22T08:08:33.021Z,2744.00
2022-10-22T08:09:33.165Z,2793.00
2022-10-22T08:10:33.365Z,2830.00
2022-10-22T08:11:33.601Z,2907.00
2022-10-22T08:12:33.763Z,2980.00
2022-10-22T08:13:33.968Z,3053.00
2022-10-22T08:14:34.135Z,3114.00
2022-10-22T08:15:34.411Z,3191.00
2022-10-22T08:16:34.537Z,3248.00
2022-10-22T08:17:34.701Z,3327.00
2022-10-22T08:18:34.901Z,3372.00
2022-10-22T08:19:35.093Z,3445.00
2022-10-22T08:20:35.247Z,3512.00
2022-10-22T08:21:35.464Z,3559.00
2022-10-22T08:22:35.670Z,3619.00
2022-10-22T08:23:35.805Z,3665.00
2022-10-22T08:24:36.033Z,3696.00
2022-10-22T08:25:36.217Z,3731.00
2022-10-22T08:26:36.440Z,3726.00
2022-10-22T08:27:36.598Z,3753.00
2022-10-22T08:28:36.759Z,3759.00
2022-10-22T08:29:36.982Z,3818.00
2022-10-22T08:30:37.158Z,3877.00
2022-10-22T08:31:37.355Z,3913.00
2022-10-22T08:32:37.518Z,3963.00
2022-10-22T08:33:37.727Z,3992.00
2022-10-22T08:34:37.948Z,3998.00
2022-10-22T08:35:38.121Z,4027.00
2022-10-22T08:36:38.330Z,4044.00
2022-10-22T08:37:38.810Z,4061.00
2022-10-22T08:38:38.685Z,4031.00
2022-10-22T08:39:38.881Z,4067.00
2022-10-22T08:40:39.162Z,4082.00
2022-10-22T08:41:39.288Z,4104.00
2022-10-22T08:42:40.022Z,4111.00
2022-10-22T08:43:39.651Z,4122.00
2022-10-22T08:44:39.849Z,4128.00
2022-10-22T08:45:40.047Z,4094.00
2022-10-22T08:46:40.302Z,4065.00
2022-10-22T08:47:40.448Z,4051.00
2022-10-22T08:48:40.643Z,4010.00
2022-10-22T08:49:42.157Z,3966.00
2022-10-22T08:50:41.071Z,3932.00
2022-10-22T08:51:41.226Z,3913.00
2022-10-22T08:52:41.633Z,3879.00
2022-10-22T08:53:41.596Z,3850.00
2022-10-22T08:54:41.785Z,3842.00
2022-10-22T08:55:42.009Z,3805.00
2022-10-22T08:56:42.250Z,3744.00
2022-10-22T08:57:42.371Z,3695.00
2022-10-22T08:58:42.552Z,3629.00
2022-10-22T08:59:42.732Z,3539.00
2022-10-22T09:00:42.918Z,3519.00
2022-10-22T09:01:43.146Z,3461.00
2022-10-22T09:02:43.805Z,3433.00
2022-10-22T09:03:43.511Z,3384.00
2022-10-22T09:04:43.739Z,3411.00
2022-10-22T09:05:43.949Z,3497.00
2022-10-22T09:06:44.101Z,3559.00
2022-10-22T09:07:44.929Z,3628.00
2022-10-22T09:08:44.545Z,3691.00
2022-10-22T09:09:44.658Z,3700.00
2022-10-22T09:10:44.854Z,3758.00
2022-10-22T09:11:45.083Z,3835.00
2022-10-22T09:12:45.231Z,3896.00
2022-10-22T09:13:45.445Z,3955.00
2022-10-22T09:14:45.639Z,4009.00
2022-10-22T09:15:47.367Z,4049.00
2022-10-22T09:16:46.058Z,4068.00
2022-10-22T09:17:46.250Z,4124.00
2022-10-22T09:18:46.433Z,4138.00
2022-10-22T09:19:46.645Z,4100.00
2022-10-22T09:20:46.842Z,4074.00
2022-10-22T09:21:47.073Z,4015.00
2022-10-22T09:22:47.214Z,3982.00
2022-10-22T09:23:47.418Z,3947.00
2022-10-22T09:24:47.594Z,3904.00
2022-10-22T09:25:47.799Z,3876.00
2022-10-22T09:26:48.005Z,3872.00
2022-10-22T09:27:48.171Z,3892.00
2022-10-22T09:28:48.421Z,3927.00
2022-10-22T09:29:48.585Z,3995.00
2022-10-22T09:30:48.845Z,4034.00
2022-10-22T09:31:49.026Z,4086.00
2022-10-22T09:32:49.151Z,4116.00
2022-10-22T09:33:49.333Z,4111.00
2022-10-22T09:34:49.516Z,4143.00
2022-10-22T09:35:49.685Z,4172.00
2022-10-22T09:36:49.887Z,4235.00
2022-10-22T09:37:50.081Z,4342.00
2022-10-22T09:38:50.239Z,4417.00
2022-10-22T09:39:50.438Z,4492.00
2022-10-22T09:40:50.641Z,4579.00
2022-10-22T09:41:50.855Z,4668.00
2022-10-22T09:42:51.048Z,4781.00
2022-10-22T09:43:51.250Z,4857.00
2022-10-22T09:44:51.466Z,5032.00
2022-10-22T09:45:51.670Z,5135.00
2022-10-22T09:46:51.841Z,5273.00
2022-10-22T09:48:01.823Z,5359.00
2022-10-22T09:48:52.200Z,5409.00
2022-10-22T09:49:52.391Z,5403.00
2022-10-22T09:50:52.616Z,5320.00
2022-10-22T09:51:52.830Z,5264.00
2022-10-22T09:52:52.980Z,5216.00
2022-10-22T09:53:53.162Z,5171.00
2022-10-22T09:54:53.366Z,5029.00
2022-10-22T09:55:53.583Z,4874.00
2022-10-22T09:56:53.787Z,4706.00
2022-10-22T09:57:53.892Z,4546.00
2022-10-22T09:58:54.097Z,4384.00
2022-10-22T09:59:54.296Z,4174.00
2022-10-22T10:00:54.515Z,4126.00
2022-10-22T10:01:54.747Z,4027.00
2022-10-22T10:02:54.911Z,3971.00
2022-10-22T10:03:55.084Z,3991.00
2022-10-22T10:04:55.436Z,4009.00
2022-10-22T10:05:55.447Z,4036.00
2022-10-22T10:06:55.706Z,4087.00
2022-10-22T10:07:55.858Z,4061.00
2022-10-22T10:08:56.082Z,4107.00
2022-10-22T10:09:56.235Z,4117.00
2022-10-22T10:10:56.520Z,4156.00
2022-10-22T10:11:56.597Z,4276.00
2022-10-22T10:12:56.767Z,7082.00
2022-10-22T10:13:57.014Z,10680.00
2022-10-22T10:14:57.127Z,9966.00
2022-10-22T10:15:57.343Z,10520.00
2022-10-22T10:16:57.551Z,12878.00
2022-10-22T10:17:57.724Z,11314.00
2022-10-22T10:18:57.936Z,12163.00
2022-10-22T10:20:01.460Z,13167.00
2022-10-22T10:20:58.329Z,13709.00
2022-10-22T10:21:58.610Z,13537.00
2022-10-22T10:22:58.720Z,12502.00
2022-10-22T10:23:58.925Z,13205.00
2022-10-22T10:24:59.105Z,15460.00
2022-10-22T10:25:59.298Z,13546.00
2022-10-22T10:26:59.475Z,8411.00
2022-10-22T10:27:59.646Z,7119.00
2022-10-22T10:28:59.840Z,5942.00
2022-10-22T10:30:00.040Z,5478.00
2022-10-22T10:31:00.335Z,6509.00
2022-10-22T10:32:00.428Z,8738.00
2022-10-22T10:33:00.594Z,11297.00
2022-10-22T10:34:00.812Z,13915.00
2022-10-22T10:35:00.973Z,14842.00
2022-10-22T10:36:01.158Z,13049.00
2022-10-22T10:37:01.380Z,12890.00
2022-10-22T10:38:01.641Z,4195.00
2022-10-22T12:20:52.177Z,5304.00
2022-10-22T12:21:52.963Z,2857.00
2022-10-22T12:22:53.180Z,4606.00
2022-10-22T12:23:53.363Z,8456.00
2022-10-22T12:24:53.549Z,8208.00
2022-10-22T12:25:53.719Z,8192.00
2022-10-22T12:26:53.907Z,7796.00
2022-10-22T12:27:54.119Z,7692.00
2022-10-22T12:28:54.272Z,7926.00
2022-10-22T12:29:54.456Z,7476.00
2022-10-22T12:30:54.643Z,7891.00
2022-10-22T12:31:54.816Z,7746.00
2022-10-22T12:32:55.023Z,8274.00
2022-10-22T12:33:55.211Z,8041.00
2022-10-22T12:34:55.407Z,7983.00
2022-10-22T12:35:55.600Z,8438.00
2022-10-22T12:36:55.791Z,8733.00
2022-10-22T12:37:55.998Z,8291.00
2022-10-22T12:38:56.190Z,8184.00
2022-10-22T12:39:56.381Z,8094.00
2022-10-22T12:40:56.571Z,7999.00
2022-10-22T12:41:56.769Z,9078.00
2022-10-22T12:42:57.025Z,8631.00
2022-10-22T12:43:57.149Z,8130.00
2022-10-22T12:44:57.341Z,8257.00
2022-10-22T12:45:57.568Z,7876.00
2022-10-22T12:46:57.723Z,7737.00
2022-10-22T12:47:57.929Z,7665.00
2022-10-22T12:48:58.123Z,7412.00
2022-10-22T12:49:58.309Z,7716.00
2022-10-22T12:50:58.496Z,7650.00
2022-10-22T12:51:58.697Z,6864.00
2022-10-22T12:52:58.884Z,6241.00
2022-10-22T12:53:59.051Z,6421.00
2022-10-22T12:54:59.242Z,6452.00
2022-10-22T12:55:59.446Z,6604.00
2022-10-22T12:56:59.647Z,6930.00
2022-10-22T12:57:59.859Z,7523.00
2022-10-22T12:59:00.032Z,8897.00
2022-10-22T13:01:00.412Z,9532.00
2022-10-22T13:02:00.590Z,10118.00
2022-10-22T13:03:00.809Z,10905.00
2022-10-22T13:04:00.987Z,10970.00
2022-10-22T13:05:01.189Z,10121.00
2022-10-22T13:06:01.386Z,9735.00
2022-10-22T13:07:01.591Z,8623.00
2022-10-22T13:08:01.810Z,8171.00
2022-10-22T13:09:02.019Z,7835.00
2022-10-22T13:10:02.139Z,7893.00
2022-10-22T13:11:02.330Z,7491.00
2022-10-22T13:12:02.527Z,7070.00
2022-10-22T13:13:02.740Z,6821.00
2022-10-22T13:14:02.912Z,6405.00
2022-10-22T13:15:03.114Z,6299.00
2022-10-22T13:16:03.304Z,9968.00
2022-10-22T13:17:03.484Z,8935.00
2022-10-22T13:18:03.698Z,14176.00
2022-10-22T13:19:03.850Z,14599.00
2022-10-22T13:20:04.080Z,12233.00
2022-10-22T13:21:04.245Z,8254.00
2022-10-22T13:22:04.441Z,7068.00
2022-10-22T13:23:04.651Z,8138.00
2022-10-22T13:24:04.801Z,5969.00
2022-10-22T13:25:05.001Z,6885.00
2022-10-22T13:26:05.205Z,6073.00
2022-10-22T13:27:05.397Z,5821.00
2022-10-22T13:28:05.606Z,5766.00
2022-10-22T13:29:05.765Z,5821.00
2022-10-22T13:30:05.960Z,6442.00
2022-10-22T13:31:06.165Z,6699.00
2022-10-22T13:32:06.365Z,7401.00
2022-10-22T13:33:06.680Z,8134.00
2022-10-22T13:34:09.957Z,7646.00
2022-10-22T13:35:06.925Z,5594.00
2022-10-22T13:36:07.077Z,9722.00
2022-10-22T13:37:07.294Z,6759.00
2022-10-22T13:38:07.508Z,7128.00
2022-10-22T13:39:07.665Z,8224.00
2022-10-22T13:40:11.000Z,8733.00
2022-10-22T13:41:08.068Z,8665.00
2022-10-22T13:42:08.263Z,9292.00
2022-10-22T13:43:08.491Z,10096.00
2022-10-22T13:44:08.669Z,9959.00
2022-10-22T13:45:08.887Z,8044.00
2022-10-22T13:46:09.110Z,10474.00
2022-10-22T13:47:09.314Z,10171.00
2022-10-22T13:48:09.515Z,10092.00
2022-10-22T13:49:09.710Z,10594.00
2022-10-22T13:50:09.882Z,10350.00
2022-10-22T13:51:10.100Z,10308.00
2022-10-22T13:52:10.300Z,6103.00
2022-10-22T13:53:10.516Z,7268.00
2022-10-22T13:54:10.676Z,5294.00
2022-10-22T13:55:10.864Z,4921.00
2022-10-22T13:56:11.056Z,4853.00
2022-10-22T13:57:11.263Z,4985.00
2022-10-22T13:58:11.475Z,6519.00
2022-10-22T13:59:11.587Z,6878.00
2022-10-22T14:00:11.781Z,6660.00
2022-10-22T14:01:12.057Z,5434.00
2022-10-22T14:02:12.147Z,6285.00
2022-10-22T14:03:12.386Z,5899.00
2022-10-22T14:04:12.536Z,6876.00
2022-10-22T14:05:12.748Z,7446.00
2022-10-22T14:06:12.897Z,6482.00
2022-10-22T14:07:13.090Z,7007.00
2022-10-22T14:08:13.294Z,6572.00
2022-10-22T14:09:13.577Z,6356.00
2022-10-22T14:10:13.658Z,6186.00
2022-10-22T14:11:13.851Z,6089.00
2022-10-22T14:12:14.044Z,5840.00
2022-10-22T14:13:14.256Z,5436.00
2022-10-22T14:14:14.514Z,4897.00
2022-10-22T14:15:14.610Z,4311.00
2022-10-22T14:16:14.761Z,3864.00
2022-10-22T14:17:14.962Z,3475.00
2022-10-22T14:18:15.134Z,3324.00
2022-10-22T14:19:15.289Z,3448.00
2022-10-22T14:20:15.486Z,3781.00
2022-10-22T14:21:15.679Z,4188.00
2022-10-22T14:22:15.870Z,4433.00
2022-10-22T14:24:16.236Z,4831.00
2022-10-22T14:25:16.427Z,5070.00
2022-10-22T14:26:16.621Z,5216.00
2022-10-22T14:27:16.809Z,4913.00
2022-10-22T14:28:17.007Z,4341.00
2022-10-22T14:29:17.206Z,4011.00
2022-10-22T14:30:17.370Z,3990.00
2022-10-22T14:31:17.569Z,4009.00
2022-10-22T14:32:17.760Z,3880.00
2022-10-22T14:33:17.983Z,3466.00
2022-10-22T14:34:18.187Z,3202.00
2022-10-22T14:35:18.344Z,3205.00
2022-10-22T14:36:18.537Z,3320.00
2022-10-22T14:37:18.736Z,3585.00
2022-10-22T14:38:18.949Z,3827.00
2022-10-22T14:39:19.120Z,3780.00
2022-10-22T14:40:19.302Z,3281.00
2022-10-22T14:41:19.493Z,2828.00
2022-10-22T14:42:19.673Z,2486.00
2022-10-22T14:43:19.885Z,2116.00
2022-10-22T14:44:20.041Z,1935.00
2022-10-22T14:45:20.236Z,1803.00
2022-10-22T14:46:20.433Z,1731.00
2022-10-22T14:47:20.658Z,1663.00
2022-10-22T14:48:20.868Z,1565.00
2022-10-22T14:49:21.024Z,1420.00
2022-10-22T14:50:21.207Z,1332.00
2022-10-22T14:51:21.425Z,1268.00
2022-10-22T14:52:21.583Z,1176.00
2022-10-22T14:53:21.927Z,1071.00
2022-10-22T14:54:22.078Z,916.00
2022-10-22T14:55:22.269Z,699.00
2022-10-22T14:56:22.450Z,494.00
2022-10-22T14:57:22.633Z,342.00
2022-10-22T14:58:22.825Z,302.00
2022-10-22T14:59:22.975Z,333.00
2022-10-22T15:00:23.156Z,384.00
2022-10-22T15:01:29.343Z,489.00
2022-10-22T15:02:23.511Z,655.00
2022-10-22T15:03:23.743Z,912.00
2022-10-22T15:04:23.876Z,1158.00
2022-10-22T15:05:24.063Z,1344.00
2022-10-22T15:06:24.276Z,1469.00
2022-10-22T15:07:24.471Z,1486.00
2022-10-22T15:08:24.683Z,1416.00
2022-10-22T15:09:24.834Z,1294.00
2022-10-22T15:10:25.011Z,1278.00
2022-10-22T15:11:25.774Z,1336.00
2022-10-22T15:12:25.382Z,1481.00
2022-10-22T15:13:25.586Z,1571.00
2022-10-22T15:14:25.763Z,1607.00
2022-10-22T15:15:30.489Z,1600.00
2022-10-22T15:16:26.137Z,1574.00
2022-10-22T15:17:26.313Z,1542.00
2022-10-22T15:18:26.507Z,1472.00
2022-10-22T15:19:26.679Z,1419.00
2022-10-22T15:20:26.854Z,1391.00
2022-10-22T15:21:27.021Z,1392.00
2022-10-22T15:22:27.219Z,1406.00
2022-10-22T15:23:27.411Z,1428.00
2022-10-22T15:24:27.580Z,1426.00
2022-10-22T15:25:27.753Z,1419.00
2022-10-22T15:26:27.922Z,1399.00
2022-10-22T15:27:28.122Z,1398.00
2022-10-22T15:28:28.306Z,1410.00
2022-10-22T15:29:28.471Z,1401.00
2022-10-22T15:30:28.653Z,1359.00
2022-10-22T15:31:28.830Z,1285.00
2022-10-22T15:32:28.995Z,1211.00
2022-10-22T15:33:29.170Z,1163.00
2022-10-22T15:34:29.325Z,1124.00
2022-10-22T15:35:29.529Z,1096.00
2022-10-22T15:36:29.707Z,1051.00
2022-10-22T15:37:29.900Z,971.00
2022-10-22T15:39:30.384Z,894.00
2022-10-22T15:40:30.555Z,850.00
2022-10-22T15:41:30.848Z,775.00
2022-10-22T15:42:31.162Z,715.00
2022-10-22T15:43:31.345Z,646.00
2022-10-22T15:44:31.531Z,579.00
2022-10-22T15:45:31.830Z,533.00
2022-10-22T15:46:34.685Z,501.00
2022-10-22T15:47:32.301Z,477.00
2022-10-22T15:48:32.627Z,469.00
2022-10-22T15:49:32.902Z,459.00
2022-10-22T15:50:33.228Z,452.00
2022-10-22T15:51:33.507Z,439.00
2022-10-22T15:52:33.797Z,404.00
2022-10-22T15:53:33.999Z,367.00
2022-10-22T15:54:34.180Z,332.00
2022-10-22T15:55:34.476Z,315.00
2022-10-22T15:56:34.785Z,308.00
2022-10-22T15:57:34.975Z,297.00
2022-10-22T15:58:35.278Z,280.00
2022-10-22T15:59:35.555Z,257.00
2022-10-22T16:00:35.846Z,236.00
2022-10-22T16:01:36.043Z,209.00
2022-10-22T16:02:36.340Z,183.00
2022-10-22T16:03:36.553Z,164.00
2022-10-22T16:04:36.715Z,138.00
2022-10-22T16:05:36.927Z,126.00
2022-10-22T16:06:37.047Z,128.00
2022-10-22T16:07:37.335Z,133.00
2022-10-22T16:08:37.677Z,128.00
2022-10-22T16:09:37.788Z,117.00
2022-10-22T16:10:37.971Z,95.00
2022-10-22T16:11:38.139Z,78.00
2022-10-22T16:12:38.420Z,73.00
2022-10-22T16:13:38.495Z,67.00
2022-10-22T16:14:38.658Z,66.00
2022-10-22T16:15:38.827Z,69.00
2022-10-22T16:16:38.997Z,69.00
2022-10-22T16:17:39.165Z,61.00
2022-10-22T16:18:39.351Z,49.00
2022-10-22T16:19:39.505Z,52.00
2022-10-22T16:20:39.673Z,47.00
2022-10-22T16:21:39.836Z,42.00
2022-10-22T16:22:40.454Z,32.00
2022-10-22T16:23:40.465Z,36.00
2022-10-22T16:24:40.608Z,27.00
2022-10-22T16:25:40.760Z,21.00
2022-10-22T16:26:41.057Z,23.00
2022-10-22T16:27:41.227Z,19.00
2022-10-22T16:28:41.415Z,14.00
2022-10-22T16:29:41.710Z,11.00
2022-10-22T16:30:41.865Z,10.00
2022-10-22T16:31:42.143Z,6.00
2022-10-22T16:32:42.622Z,7.00
2022-10-22T16:33:47.786Z,5.00
2022-10-22T16:34:42.808Z,3.00
2022-10-22T16:35:43.081Z,2.00
2022-10-22T16:36:43.285Z,2.00
2022-10-22T16:37:43.980Z,2.00
2022-10-22T16:38:43.743Z,1.00
2022-10-22T16:39:43.891Z,1.00
2022-10-22T16:40:44.268Z,0.00
2022-10-22T16:41:44.629Z,0.00
2022-10-22T16:42:44.993Z,0.00
2022-10-22T16:43:45.393Z,0.00
2022-10-22T16:44:45.729Z,0.00
2022-10-22T16:45:46.090Z,0.00
2022-10-22T16:46:46.462Z,0.00
2022-10-22T16:47:46.835Z,0.00
2022-10-22T16:48:47.219Z,0.00
2022-10-22T16:49:47.571Z,0.00
2022-10-22T16:50:47.949Z,0.00
2022-10-22T16:51:48.281Z,0.00
2022-10-22T16:52:48.670Z,0.00
2022-10-22T16:53:49.021Z,0.00
2022-10-22T16:54:49.365Z,0.00
2022-10-22T16:55:49.731Z,0.00
2022-10-22T16:56:50.110Z,0.00
2022-10-22T16:57:51.312Z,0.00
2022-10-22T16:58:50.854Z,0.00
2022-10-22T16:59:51.188Z,0.00
2022-10-22T17:00:51.570Z,0.00
2022-10-22T17:01:51.914Z,0.00
2022-10-22T17:02:52.251Z,0.00
2022-10-22T17:03:53.306Z,0.00